Impacts METAR Board
IDs:

KIAH - Houston/Bush Intl, TX, US

Updated at: 1700 UTC 30 Oct 2020
Potential Impact None Slight Moderate High
Time 30/05Z 30/06Z 30/07Z 30/08Z 30/09Z 30/10Z 30/11Z 30/12Z 30/13Z 30/14Z 30/15Z 30/16Z 30/17Z
Temp51 50 50 50 49 48 47 47 45 51 55 60 61
Dewpt43 44 44 44 44 43 43 43 42 45 45 45 44
Altim30.20 30.20 30.20 30.20 30.21 30.21 30.22 30.24 30.26 30.28 30.30 30.31 30.30
VIS10 10 10 10 10 10 10 10 10 10 10 10 10
CIG-- -- -- -- -- -- -- -- -- -- -- -- --
CoverCLRCLRCLRCLRCLRCLRCLRCLRCLRCLRFEWFEWFEW
FltCatVFRVFRVFRVFRVFRVFRVFRVFRVFRVFRVFRVFRVFR
WX--------------------------
WDir36036010101036035032036020404040
WSpd9 10 12 11 8 5 4 3 4 6 7 6 4
WGst-- -- -- -- -- -- -- -- -- -- -- -- --
Raw hourly METARs
KIAH 300453Z 36009KT 10SM CLR 11/06 A3020 RMK AO2 SLP227 T01060061
KIAH 300553Z 36010KT 10SM CLR 10/07 A3020 RMK AO2 SLP226 T01000067 10122 20100 401890056 50001
KIAH 300653Z 01012KT 10SM CLR 10/07 A3020 RMK AO2 SLP227 T01000067
KIAH 300753Z 01011KT 10SM CLR 10/07 A3020 RMK AO2 SLP225 T01000067
KIAH 300853Z 01008KT 10SM CLR 09/07 A3021 RMK AO2 SLP228 T00940067 53002
KIAH 300953Z 36005KT 10SM CLR 09/06 A3021 RMK AO2 SLP230 T00890061
KIAH 301053Z 35004KT 10SM CLR 08/06 A3022 RMK AO2 SLP232 T00830061
KIAH 301153Z 32003KT 10SM CLR 08/06 A3024 RMK AO2 SLP240 T00830061 10100 20078 53012
KIAH 301253Z 36004KT 10SM CLR 07/06 A3026 RMK AO2 SLP246 T00720056
KIAH 301353Z 02006KT 10SM CLR 11/07 A3028 RMK AO2 SLP253 T01060072
KIAH 301453Z 04007KT 10SM FEW020 13/07 A3030 RMK AO2 SLP261 T01280072 53021
KIAH 301553Z 04006KT 10SM FEW030 16/07 A3031 RMK AO2 SLP263 T01560072
KIAH 301653Z 04004KT 10SM FEW034 16/07 A3030 RMK AO2 SLP262 T01610067



Page loaded:  17:22 UTC  |   10:22 AM Pacific  |   11:22 AM Mountain  |   12:22 PM Central  |   01:22 PM Eastern

 

ADVISORIES

FORECASTS

FORECASTS

OBSERVATIONS

USER TOOLS

ABOUT US